createdAt,value
2023-05-05T00:01:08.790Z,9.21
2023-05-05T00:03:36.463Z,9.15
2023-05-05T00:06:05.433Z,9.25
2023-05-05T00:08:33.393Z,9.15
2023-05-05T00:11:02.054Z,9.28
2023-05-05T00:13:29.751Z,9.12
2023-05-05T00:15:57.456Z,9.17
2023-05-05T00:18:24.665Z,9.04
2023-05-05T00:20:52.330Z,9.04
2023-05-05T00:23:20.486Z,9.08
2023-05-05T00:25:47.751Z,9.10
2023-05-05T00:28:16.536Z,8.79
2023-05-05T00:30:44.045Z,8.69
2023-05-05T00:33:11.429Z,8.90
2023-05-05T00:35:38.697Z,9.04
2023-05-05T00:38:07.274Z,9.11
2023-05-05T00:40:34.653Z,8.90
2023-05-05T00:43:02.746Z,8.57
2023-05-05T00:45:31.883Z,8.53
2023-05-05T00:48:00.736Z,8.48
2023-05-05T00:50:29.607Z,8.52
2023-05-05T00:53:01.106Z,8.54
2023-05-05T00:55:28.793Z,8.56
2023-05-05T00:57:56.779Z,8.42
2023-05-05T01:00:24.221Z,8.38
2023-05-05T01:02:53.183Z,8.29
2023-05-05T01:05:22.967Z,8.29
2023-05-05T01:08:03.034Z,8.20
2023-05-05T01:10:36.560Z,8.24
2023-05-05T01:13:20.733Z,8.36
2023-05-05T01:15:55.153Z,8.33
2023-05-05T01:18:32.293Z,8.36
2023-05-05T01:21:07.122Z,8.16
2023-05-05T01:23:55.727Z,8.11
2023-05-05T01:26:51.365Z,8.22
2023-05-05T01:29:41.434Z,8.09
2023-05-05T01:32:12.996Z,8.24
2023-05-05T01:34:45.420Z,8.24
2023-05-05T01:37:18.421Z,8.02
2023-05-05T01:39:50.228Z,8.02
2023-05-05T01:42:18.790Z,7.88
2023-05-05T01:44:48.324Z,7.93
2023-05-05T01:47:19.592Z,7.83
2023-05-05T01:49:48.093Z,8.12
2023-05-05T01:52:16.318Z,8.33
2023-05-05T01:54:45.520Z,8.29
2023-05-05T01:57:14.711Z,8.11
2023-05-05T01:59:42.423Z,8.16
2023-05-05T02:02:11.324Z,7.90
2023-05-05T02:04:43.620Z,7.90
2023-05-05T02:07:12.696Z,7.83
2023-05-05T02:09:42.529Z,7.73
2023-05-05T02:12:10.713Z,7.69
2023-05-05T02:14:39.024Z,8.02
2023-05-05T02:17:06.283Z,8.11
2023-05-05T02:19:38.857Z,8.09
2023-05-05T02:22:08.131Z,7.93
2023-05-05T02:24:35.839Z,7.85
2023-05-05T02:27:06.320Z,7.85
2023-05-05T02:29:36.595Z,7.85
2023-05-05T02:32:09.693Z,7.91
2023-05-05T02:34:39.960Z,8.04
2023-05-05T02:37:12.784Z,8.02
2023-05-05T02:39:45.245Z,8.08
2023-05-05T02:42:18.434Z,7.88
2023-05-05T02:44:46.489Z,7.87
2023-05-05T02:47:13.877Z,7.77
2023-05-05T02:49:41.206Z,7.67
2023-05-05T02:52:09.969Z,7.73
2023-05-05T02:54:37.582Z,7.97
2023-05-05T02:57:04.843Z,7.78
2023-05-05T02:59:38.249Z,7.73
2023-05-05T03:02:16.958Z,7.88
2023-05-05T03:04:49.417Z,7.99
2023-05-05T03:07:25.962Z,8.06
2023-05-05T03:10:01.095Z,7.70
2023-05-05T03:12:37.663Z,7.66
2023-05-05T03:15:08.284Z,7.69
2023-05-05T03:17:36.944Z,7.65
2023-05-05T03:20:06.210Z,7.81
2023-05-05T03:22:37.393Z,7.88
2023-05-05T03:25:06.298Z,7.67
2023-05-05T03:27:33.578Z,7.63
2023-05-05T03:30:02.643Z,7.53
2023-05-05T03:32:30.996Z,7.45
2023-05-05T03:34:58.284Z,7.35
2023-05-05T03:37:25.460Z,7.30
2023-05-05T03:39:54.021Z,7.28
2023-05-05T03:42:21.266Z,7.33
2023-05-05T03:44:48.538Z,7.33
2023-05-05T03:47:15.708Z,7.42
2023-05-05T03:49:42.917Z,7.50
2023-05-05T03:52:10.260Z,7.71
2023-05-05T03:54:37.832Z,7.76
2023-05-05T03:57:06.526Z,7.65
2023-05-05T03:59:33.835Z,7.63
2023-05-05T04:02:01.557Z,7.60
2023-05-05T04:04:29.095Z,7.52
2023-05-05T04:06:56.408Z,7.57
2023-05-05T04:09:23.589Z,7.63
2023-05-05T04:11:51.234Z,7.70
2023-05-05T04:14:20.033Z,7.73
2023-05-05T04:16:47.222Z,7.91
2023-05-05T04:19:14.433Z,7.93
2023-05-05T04:21:41.786Z,7.88
2023-05-05T04:24:09.734Z,7.97
2023-05-05T04:26:37.339Z,7.93
2023-05-05T04:29:07.043Z,8.05
2023-05-05T04:31:35.681Z,8.20
2023-05-05T04:34:03.008Z,8.22
2023-05-05T04:36:30.167Z,8.21
2023-05-05T04:38:57.497Z,8.22
2023-05-05T04:41:24.743Z,8.38
2023-05-05T04:43:51.953Z,8.43
2023-05-05T04:46:19.230Z,8.46
2023-05-05T04:48:47.887Z,8.60
2023-05-05T04:51:15.235Z,8.76
2023-05-05T04:53:42.612Z,8.88
2023-05-05T04:56:09.831Z,9.03
2023-05-05T04:58:37.217Z,9.17
2023-05-05T05:01:05.062Z,9.28
2023-05-05T05:03:32.493Z,9.34
2023-05-05T05:06:01.189Z,9.48
2023-05-05T05:08:28.754Z,9.59
2023-05-05T05:10:56.234Z,9.80
2023-05-05T05:13:23.829Z,9.80
2023-05-05T05:15:51.396Z,9.86
2023-05-05T05:18:18.662Z,9.89
2023-05-05T05:20:46.554Z,9.94
2023-05-05T05:23:15.372Z,10.07
2023-05-05T05:25:43.204Z,10.15
2023-05-05T05:28:11.140Z,10.28
2023-05-05T05:30:38.691Z,10.46
2023-05-05T05:33:06.908Z,10.52
2023-05-05T05:35:34.242Z,10.53
2023-05-05T05:38:04.161Z,10.56
2023-05-05T05:40:34.631Z,10.68
2023-05-05T05:43:03.016Z,10.84
2023-05-05T05:45:32.184Z,10.97
2023-05-05T05:48:02.437Z,11.07
2023-05-05T05:50:36.576Z,11.17
2023-05-05T05:53:03.919Z,11.27
2023-05-05T05:55:32.167Z,11.37
2023-05-05T05:58:00.959Z,11.52
2023-05-05T06:00:30.454Z,11.64
2023-05-05T06:02:57.893Z,11.72
2023-05-05T06:05:25.447Z,11.83
2023-05-05T06:07:52.796Z,11.85
2023-05-05T06:10:27.826Z,12.09
2023-05-05T06:12:55.488Z,12.17
2023-05-05T06:15:25.713Z,12.31
2023-05-05T06:17:53.266Z,12.37
2023-05-05T06:20:20.597Z,12.48
2023-05-05T06:22:47.895Z,12.57
2023-05-05T06:25:15.793Z,12.75
2023-05-05T06:27:43.396Z,12.93
2023-05-05T06:30:11.644Z,13.09
2023-05-05T06:32:40.419Z,13.24
2023-05-05T06:35:14.044Z,13.33
2023-05-05T06:37:44.367Z,13.36
2023-05-05T06:40:12.510Z,13.51
2023-05-05T06:42:39.812Z,13.79
2023-05-05T06:45:10.161Z,13.89
2023-05-05T06:47:37.618Z,14.01
2023-05-05T06:50:09.099Z,14.21
2023-05-05T06:52:36.964Z,14.19
2023-05-05T06:55:04.826Z,14.41
2023-05-05T06:57:32.132Z,14.64
2023-05-05T07:00:00.060Z,14.66
2023-05-05T07:02:27.533Z,14.66
2023-05-05T07:04:55.713Z,14.83
2023-05-05T07:07:24.461Z,14.85
2023-05-05T07:09:51.857Z,15.09
2023-05-05T07:12:19.400Z,15.14
2023-05-05T07:14:46.861Z,15.28
2023-05-05T07:17:14.124Z,15.24
2023-05-05T07:19:41.416Z,15.46
2023-05-05T07:22:08.839Z,15.39
2023-05-05T07:24:37.547Z,15.57
2023-05-05T07:27:05.256Z,15.56
2023-05-05T07:29:32.545Z,15.59
2023-05-05T07:31:59.853Z,15.76
2023-05-05T07:34:32.899Z,16.00
2023-05-05T07:37:00.197Z,16.04
2023-05-05T07:39:42.332Z,16.39
2023-05-05T07:42:11.655Z,16.72
2023-05-05T07:44:43.856Z,16.66
2023-05-05T07:47:13.472Z,17.78
2023-05-05T07:49:42.872Z,17.45
2023-05-05T07:52:12.186Z,17.10
2023-05-05T07:54:46.075Z,17.15
2023-05-05T07:57:19.467Z,17.39
2023-05-05T07:59:48.959Z,18.48
2023-05-05T08:02:18.397Z,17.73
2023-05-05T08:04:47.821Z,17.61
2023-05-05T08:07:17.028Z,17.69
2023-05-05T08:09:48.194Z,18.04
2023-05-05T08:12:19.867Z,18.17
2023-05-05T08:14:52.236Z,17.94
2023-05-05T08:17:21.852Z,18.36
2023-05-05T08:19:53.927Z,18.49
2023-05-05T08:22:34.111Z,18.45
2023-05-05T08:25:07.954Z,18.58
2023-05-05T08:27:37.445Z,18.65
2023-05-05T08:30:08.536Z,18.59
2023-05-05T08:32:36.314Z,18.84
2023-05-05T08:35:12.683Z,19.09
2023-05-05T08:37:40.102Z,19.13
2023-05-05T08:40:14.074Z,19.41
2023-05-05T08:42:47.226Z,18.86
2023-05-05T08:45:14.911Z,19.44
2023-05-05T08:47:43.549Z,19.51
2023-05-05T08:50:11.897Z,19.47
2023-05-05T08:52:41.442Z,19.60
2023-05-05T08:55:15.621Z,19.95
2023-05-05T08:57:50.963Z,19.91
2023-05-05T09:00:19.870Z,19.70
2023-05-05T09:02:47.634Z,19.85
2023-05-05T09:05:16.404Z,19.98
2023-05-05T09:07:44.426Z,19.98
2023-05-05T09:10:13.464Z,20.08
2023-05-05T09:12:45.514Z,20.15
2023-05-05T09:15:14.865Z,20.13
2023-05-05T09:20:34.720Z,20.50
2023-05-05T09:23:09.432Z,20.32
2023-05-05T09:25:38.993Z,20.36
2023-05-05T09:28:10.805Z,20.74
2023-05-05T09:30:38.719Z,20.70
2023-05-05T09:33:06.547Z,20.67
2023-05-05T09:35:51.194Z,20.88
2023-05-05T09:38:19.452Z,21.19
2023-05-05T09:40:49.361Z,21.06
2023-05-05T09:43:17.089Z,20.99
2023-05-05T09:45:44.569Z,21.21
2023-05-05T09:48:25.716Z,20.96
2023-05-05T09:50:54.039Z,21.05
2023-05-05T09:53:21.847Z,21.12
2023-05-05T09:55:57.903Z,21.29
2023-05-05T09:58:26.973Z,21.15
2023-05-05T10:00:55.312Z,21.29
2023-05-05T10:03:25.151Z,21.25
2023-05-05T10:05:54.149Z,21.38
2023-05-05T10:08:23.473Z,21.49
2023-05-05T10:10:53.353Z,21.51
2023-05-05T10:13:24.180Z,21.66
2023-05-05T10:15:53.089Z,21.78
2023-05-05T10:18:22.196Z,21.88
2023-05-05T10:20:56.014Z,21.96
2023-05-05T10:23:25.133Z,22.21
2023-05-05T10:25:59.258Z,22.18
2023-05-05T10:28:33.023Z,22.07
2023-05-05T10:31:04.237Z,22.46
2023-05-05T10:33:47.969Z,22.80
2023-05-05T10:36:16.415Z,22.74
2023-05-05T10:38:45.644Z,22.84
2023-05-05T10:41:14.300Z,22.89
2023-05-05T10:43:43.564Z,22.84
2023-05-05T10:46:11.204Z,22.91
2023-05-05T10:48:47.173Z,22.90
2023-05-05T10:51:39.436Z,22.76
2023-05-05T10:54:13.903Z,23.00
2023-05-05T10:56:43.267Z,23.35
2023-05-05T10:59:42.683Z,23.79
2023-05-05T11:02:24.315Z,24.10
2023-05-05T11:05:15.306Z,24.58
2023-05-05T11:07:43.264Z,25.19
2023-05-05T11:10:12.176Z,25.02
2023-05-05T11:13:20.004Z,24.73
2023-05-05T11:15:49.733Z,25.84
2023-05-05T11:18:36.870Z,25.02
2023-05-05T11:21:22.489Z,24.69
2023-05-05T11:23:51.370Z,26.01
2023-05-05T11:26:40.430Z,26.43
2023-05-05T11:29:10.536Z,26.56
2023-05-05T11:31:39.371Z,26.64
2023-05-05T11:34:29.298Z,26.98
2023-05-05T11:37:03.325Z,27.26
2023-05-05T11:39:42.939Z,27.28
2023-05-05T11:42:30.287Z,27.73
2023-05-05T11:45:01.509Z,28.48
2023-05-05T11:47:33.355Z,28.80
2023-05-05T11:50:17.455Z,28.93
2023-05-05T11:52:44.974Z,28.83
2023-05-05T11:55:12.338Z,27.70
2023-05-05T11:57:40.040Z,28.12
2023-05-05T12:00:09.201Z,28.84
2023-05-05T12:02:42.290Z,28.59
2023-05-05T12:05:09.862Z,29.18
2023-05-05T12:07:37.233Z,28.99
2023-05-05T12:10:07.047Z,29.68
2023-05-05T12:12:38.534Z,30.00
2023-05-05T12:15:07.130Z,29.33
2023-05-05T12:17:45.111Z,30.10
2023-05-05T12:20:13.478Z,29.50
2023-05-05T12:22:41.037Z,30.85
2023-05-05T12:25:09.272Z,30.10
2023-05-05T12:27:36.648Z,29.41
2023-05-05T12:30:15.759Z,30.88
2023-05-05T12:32:45.683Z,30.67
2023-05-05T12:35:16.114Z,30.07
2023-05-05T12:37:43.883Z,31.00
2023-05-05T12:40:47.539Z,29.89
2023-05-05T12:43:26.586Z,30.84
2023-05-05T12:46:05.768Z,31.26
2023-05-05T12:48:36.050Z,30.34
2023-05-05T12:51:20.159Z,30.71
2023-05-05T12:53:48.942Z,29.51
2023-05-05T12:56:38.776Z,28.55
2023-05-05T12:59:08.150Z,28.52
2023-05-05T13:01:36.638Z,28.44
2023-05-05T13:04:07.260Z,27.45
2023-05-05T13:06:36.203Z,26.92
2023-05-05T13:09:04.120Z,26.63
2023-05-05T13:11:36.405Z,26.26
2023-05-05T13:14:03.850Z,25.99
2023-05-05T13:16:31.355Z,25.54
2023-05-05T13:18:58.983Z,25.31
2023-05-05T13:21:28.193Z,24.60
2023-05-05T13:24:04.887Z,24.95
2023-05-05T13:26:39.664Z,24.95
2023-05-05T13:29:06.931Z,24.78
2023-05-05T13:31:34.862Z,24.75
2023-05-05T13:34:02.291Z,24.69
2023-05-05T13:36:33.316Z,24.85
2023-05-05T13:39:00.869Z,24.83
2023-05-05T13:41:28.397Z,24.52
2023-05-05T13:43:56.596Z,24.41
2023-05-05T13:46:23.895Z,24.12
2023-05-05T13:48:56.074Z,24.07
2023-05-05T13:51:24.408Z,23.97
2023-05-05T13:53:53.224Z,24.00
2023-05-05T13:56:20.585Z,24.07
2023-05-05T13:58:47.767Z,24.12
2023-05-05T14:01:15.423Z,24.33
2023-05-05T14:03:42.744Z,24.47
2023-05-05T14:06:09.975Z,24.12
2023-05-05T14:08:37.384Z,23.99
2023-05-05T14:11:06.115Z,23.92
2023-05-05T14:13:33.387Z,23.92
2023-05-05T14:16:00.647Z,23.82
2023-05-05T14:18:28.517Z,23.57
2023-05-05T14:20:56.316Z,23.58
2023-05-05T14:23:24.040Z,23.57
2023-05-05T14:25:51.292Z,23.54
2023-05-05T14:28:20.008Z,23.52
2023-05-05T14:30:47.274Z,23.69
2023-05-05T14:33:14.545Z,23.59
2023-05-05T14:35:41.763Z,23.49
2023-05-05T14:38:09.075Z,23.39
2023-05-05T14:40:36.424Z,23.32
2023-05-05T14:43:03.634Z,23.25
2023-05-05T14:45:32.702Z,23.24
2023-05-05T14:48:00.229Z,23.37
2023-05-05T14:50:27.501Z,23.42
2023-05-05T14:52:54.920Z,23.45
2023-05-05T14:55:22.510Z,23.44
2023-05-05T14:57:49.974Z,23.47
2023-05-05T15:00:17.750Z,23.42
2023-05-05T15:02:48.319Z,23.30
2023-05-05T15:05:15.847Z,23.15
2023-05-05T15:07:43.279Z,23.20
2023-05-05T15:10:11.253Z,23.18
2023-05-05T15:12:39.018Z,23.11
2023-05-05T15:15:08.868Z,23.10
2023-05-05T15:17:37.678Z,23.08
2023-05-05T15:20:07.786Z,23.08
2023-05-05T15:22:35.167Z,22.94
2023-05-05T15:25:02.428Z,22.86
2023-05-05T15:27:30.791Z,22.86
2023-05-05T15:29:58.152Z,22.87
2023-05-05T15:32:25.557Z,22.90
2023-05-05T15:34:52.748Z,22.86
2023-05-05T15:37:21.374Z,22.86
2023-05-05T15:39:48.602Z,22.83
2023-05-05T15:42:15.761Z,22.84
2023-05-05T15:44:42.941Z,22.80
2023-05-05T15:47:11.049Z,22.69
2023-05-05T15:49:38.346Z,22.66
2023-05-05T15:52:05.941Z,22.67
2023-05-05T15:54:34.532Z,22.70
2023-05-05T15:57:03.207Z,22.69
2023-05-05T15:59:30.537Z,22.72
2023-05-05T16:01:58.187Z,22.73
2023-05-05T16:04:25.619Z,22.84
2023-05-05T16:06:53.168Z,22.84
2023-05-05T16:09:20.372Z,22.67
2023-05-05T16:11:49.271Z,22.60
2023-05-05T16:14:16.710Z,22.55
2023-05-05T16:16:44.056Z,22.66
2023-05-05T16:19:11.472Z,22.62
2023-05-05T16:21:38.947Z,22.80
2023-05-05T16:24:06.979Z,23.57
2023-05-05T16:26:35.951Z,23.86
2023-05-05T16:29:04.788Z,25.30
2023-05-05T16:31:34.088Z,25.94
2023-05-05T16:34:01.417Z,26.44
2023-05-05T16:36:28.675Z,24.54
2023-05-05T16:38:56.562Z,23.85
2023-05-05T16:41:24.306Z,23.47
2023-05-05T16:43:51.591Z,23.55
2023-05-05T16:46:20.257Z,24.57
2023-05-05T16:48:47.857Z,24.07
2023-05-05T16:51:15.212Z,23.14
2023-05-05T16:53:42.501Z,22.64
2023-05-05T16:56:11.720Z,22.45
2023-05-05T16:58:39.598Z,22.32
2023-05-05T17:01:06.909Z,22.19
2023-05-05T17:03:36.032Z,22.00
2023-05-05T17:06:03.497Z,21.81
2023-05-05T17:08:30.827Z,21.63
2023-05-05T17:10:58.283Z,21.43
2023-05-05T17:13:25.715Z,21.32
2023-05-05T17:15:53.004Z,21.29
2023-05-05T17:18:23.041Z,21.13
2023-05-05T17:20:52.106Z,20.98
2023-05-05T17:23:21.339Z,20.96
2023-05-05T17:25:48.546Z,20.83
2023-05-05T17:28:17.298Z,20.71
2023-05-05T17:30:44.709Z,20.54
2023-05-05T17:33:11.976Z,20.56
2023-05-05T17:35:39.316Z,20.48
2023-05-05T17:38:07.974Z,20.34
2023-05-05T17:40:35.308Z,20.26
2023-05-05T17:43:02.525Z,20.19
2023-05-05T17:45:29.861Z,20.10
2023-05-05T17:47:57.283Z,19.91
2023-05-05T17:50:24.603Z,19.78
2023-05-05T17:52:53.553Z,19.61
2023-05-05T17:55:22.405Z,19.46
2023-05-05T17:57:49.811Z,19.31
2023-05-05T18:00:18.415Z,19.14
2023-05-05T18:02:46.078Z,19.03
2023-05-05T18:05:14.452Z,18.92
2023-05-05T18:07:41.762Z,18.85
2023-05-05T18:10:10.775Z,18.72
2023-05-05T18:12:39.498Z,18.61
2023-05-05T18:15:08.848Z,18.52
2023-05-05T18:17:36.671Z,18.38
2023-05-05T18:20:06.832Z,18.27
2023-05-05T18:22:34.406Z,18.16
2023-05-05T18:25:01.634Z,17.93
2023-05-05T18:27:29.387Z,17.85
2023-05-05T18:29:58.127Z,17.72
2023-05-05T18:32:25.445Z,17.65
2023-05-05T18:34:52.707Z,17.56
2023-05-05T18:37:19.949Z,17.44
2023-05-05T18:39:47.225Z,17.32
2023-05-05T18:42:14.528Z,17.17
2023-05-05T18:44:42.036Z,17.13
2023-05-05T18:47:10.799Z,17.07
2023-05-05T18:49:38.174Z,16.99
2023-05-05T18:52:05.604Z,16.99
2023-05-05T18:54:32.908Z,16.86
2023-05-05T18:57:00.130Z,16.67
2023-05-05T18:59:27.449Z,16.67
2023-05-05T19:01:55.000Z,16.56
2023-05-05T19:04:30.831Z,16.56
2023-05-05T19:06:58.844Z,16.47
2023-05-05T19:09:26.189Z,16.44
2023-05-05T19:11:53.609Z,16.45
2023-05-05T19:14:22.523Z,16.35
2023-05-05T19:16:50.032Z,16.35
2023-05-05T19:19:17.284Z,16.20
2023-05-05T19:21:45.966Z,16.08
2023-05-05T19:24:14.060Z,16.05
2023-05-05T19:26:41.475Z,15.94
2023-05-05T19:29:08.759Z,15.89
2023-05-05T19:31:36.511Z,15.91
2023-05-05T19:34:04.878Z,15.79
2023-05-05T19:36:33.591Z,15.77
2023-05-05T19:39:03.538Z,15.54
2023-05-05T19:41:31.237Z,15.47
2023-05-05T19:43:58.610Z,15.29
2023-05-05T19:46:26.968Z,15.05
2023-05-05T19:48:54.336Z,15.31
2023-05-05T19:51:21.881Z,15.29
2023-05-05T19:53:49.204Z,15.36
2023-05-05T19:56:17.897Z,15.22
2023-05-05T19:58:56.103Z,15.02
2023-05-05T20:01:24.101Z,14.94
2023-05-05T20:03:54.460Z,14.92
2023-05-05T20:06:22.034Z,14.99
2023-05-05T20:08:49.242Z,14.89
2023-05-05T20:11:18.353Z,14.59
2023-05-05T20:13:45.616Z,14.53
2023-05-05T20:16:12.868Z,14.41
2023-05-05T20:18:40.393Z,14.46
2023-05-05T20:21:07.750Z,14.53
2023-05-05T20:23:35.196Z,14.49
2023-05-05T20:26:02.628Z,14.30
2023-05-05T20:28:31.953Z,14.40
2023-05-05T20:31:00.784Z,14.29
2023-05-05T20:33:28.521Z,14.09
2023-05-05T20:35:55.817Z,14.04
2023-05-05T20:38:23.615Z,14.11
2023-05-05T20:40:52.282Z,13.97
2023-05-05T20:43:19.616Z,14.06
2023-05-05T20:45:48.341Z,13.89
2023-05-05T20:48:15.849Z,13.92
2023-05-05T20:50:43.530Z,13.88
2023-05-05T20:53:13.888Z,13.91
2023-05-05T20:55:41.286Z,13.74
2023-05-05T20:58:09.320Z,13.74
2023-05-05T21:00:36.737Z,13.70
2023-05-05T21:03:06.165Z,13.58
2023-05-05T21:05:33.639Z,13.58
2023-05-05T21:08:01.330Z,13.48
2023-05-05T21:10:29.149Z,13.50
2023-05-05T21:12:56.610Z,13.42
2023-05-05T21:15:24.048Z,13.40
2023-05-05T21:17:51.892Z,13.50
2023-05-05T21:20:21.046Z,13.40
2023-05-05T21:22:48.370Z,13.40
2023-05-05T21:25:17.320Z,13.19
2023-05-05T21:27:45.125Z,13.10
2023-05-05T21:30:13.100Z,13.10
2023-05-05T21:32:40.712Z,13.08
2023-05-05T21:35:09.278Z,12.84
2023-05-05T21:37:39.629Z,12.84
2023-05-05T21:40:11.342Z,12.75
2023-05-05T21:42:38.824Z,12.62
2023-05-05T21:45:06.953Z,12.20
2023-05-05T21:47:34.577Z,12.27
2023-05-05T21:50:02.121Z,12.14
2023-05-05T21:52:29.401Z,12.09
2023-05-05T21:54:58.104Z,11.90
2023-05-05T21:57:25.564Z,12.27
2023-05-05T21:59:52.792Z,12.30
2023-05-05T22:02:20.218Z,12.24
2023-05-05T22:04:50.640Z,12.33
2023-05-05T22:07:17.825Z,12.38
2023-05-05T22:09:46.086Z,12.37
2023-05-05T22:12:14.759Z,12.37
2023-05-05T22:14:42.032Z,12.42
2023-05-05T22:17:09.276Z,12.37
2023-05-05T22:19:36.505Z,12.48
2023-05-05T22:22:03.814Z,12.44
2023-05-05T22:24:31.273Z,12.44
2023-05-05T22:26:58.625Z,12.54
2023-05-05T22:29:27.573Z,12.52
2023-05-05T22:31:54.981Z,12.44
2023-05-05T22:34:22.328Z,12.54
2023-05-05T22:36:49.993Z,12.62
2023-05-05T22:39:18.734Z,12.69
2023-05-05T22:41:46.658Z,12.74
2023-05-05T22:44:14.000Z,12.64
2023-05-05T22:46:42.777Z,12.57
2023-05-05T22:49:10.396Z,12.64
2023-05-05T22:51:37.668Z,12.55
2023-05-05T22:54:05.146Z,12.50
2023-05-05T22:56:33.473Z,12.47
2023-05-05T22:59:00.807Z,12.50
2023-05-05T23:01:28.319Z,12.38
2023-05-05T23:03:57.139Z,12.31
2023-05-05T23:06:25.278Z,12.27
2023-05-05T23:08:52.889Z,12.24
2023-05-05T23:11:20.228Z,12.44
2023-05-05T23:13:47.593Z,12.22
2023-05-05T23:16:14.873Z,12.17
2023-05-05T23:18:42.201Z,12.22
2023-05-05T23:21:10.967Z,12.23
2023-05-05T23:23:38.220Z,12.22
2023-05-05T23:26:05.575Z,12.13
2023-05-05T23:28:33.350Z,12.16
2023-05-05T23:31:01.220Z,12.22
2023-05-05T23:33:28.658Z,12.17
2023-05-05T23:35:56.081Z,12.04
2023-05-05T23:38:24.804Z,12.09
2023-05-05T23:40:52.223Z,12.06
2023-05-05T23:43:19.422Z,12.22
2023-05-05T23:45:46.675Z,12.14
2023-05-05T23:48:14.142Z,11.87
2023-05-05T23:50:41.423Z,11.92
2023-05-05T23:53:09.169Z,11.92
2023-05-05T23:55:37.980Z,11.89
2023-05-05T23:58:05.336Z,11.81
